Time;durP1;ratioP1;P1;durP2;ratioP2;P2;SDS_P1;SDS_P2;PMS_P1;PMS_P2;Temp;Humidity;BMP_temperature;BMP_pressure;BME280_temperature;BME280_humidity;BME280_pressure;Samples;Min_cycle;Max_cycle;Signal;HPM_P1;HPM_P2
2023/05/24 00:01:56;;;;;;;0.50;0.50;;;;;;;17.02;100.00;99160.16;4970843;28;20200;-64
2023/05/24 00:04:23;;;;;;;0.40;0.40;;;;;;;16.92;100.00;99148.66;4970781;28;20210;-63
2023/05/24 00:06:50;;;;;;;0.57;0.57;;;;;;;16.96;100.00;99155.34;4972635;28;20199;-63
2023/05/24 00:09:18;;;;;;;0.50;0.50;;;;;;;16.90;100.00;99160.88;4974733;28;20207;-64
2023/05/24 00:11:45;;;;;;;0.50;0.50;;;;;;;16.83;100.00;99149.22;4974051;28;20196;-63
2023/05/24 00:14:13;;;;;;;0.50;0.50;;;;;;;16.73;100.00;99144.59;4973109;28;20200;-63
2023/05/24 00:16:40;;;;;;;0.43;0.43;;;;;;;16.66;100.00;99143.28;4973920;28;20230;-63
2023/05/24 00:19:09;;;;;;;0.53;0.53;;;;;;;16.71;100.00;99154.19;4974279;28;20675;-63
2023/05/24 00:21:36;;;;;;;0.50;0.50;;;;;;;16.68;100.00;99154.38;4974191;28;20306;-63
2023/05/24 00:24:03;;;;;;;0.60;0.60;;;;;;;16.66;100.00;99148.47;4973796;28;20231;-64
2023/05/24 00:26:30;;;;;;;0.50;0.50;;;;;;;16.66;100.00;99130.34;4974973;28;20261;-64
2023/05/24 00:28:57;;;;;;;1.13;1.13;;;;;;;16.68;100.00;99150.94;4967371;28;20203;-64
2023/05/24 00:31:25;;;;;;;0.47;0.47;;;;;;;16.68;100.00;99148.38;4964589;28;20679;-63
2023/05/24 00:33:52;;;;;;;0.40;0.40;;;;;;;16.66;100.00;99153.66;4964004;28;20204;-64
2023/05/24 00:36:18;;;;;;;0.40;0.40;;;;;;;16.64;100.00;99150.28;4961481;28;20215;-63
2023/05/24 00:38:46;;;;;;;0.40;0.40;;;;;;;16.61;100.00;99147.88;4970785;28;20270;-63
2023/05/24 00:41:14;;;;;;;0.60;0.60;;;;;;;16.60;100.00;99137.66;4973672;28;20203;-64
2023/05/24 00:43:42;;;;;;;0.67;0.67;;;;;;;16.54;100.00;99141.38;4973405;28;20235;-64
2023/05/24 00:46:21;;;;;;;0.57;0.57;;;;;;;16.52;100.00;99140.63;4973729;28;20210;-64
2023/05/24 00:48:49;;;;;;;0.50;0.50;;;;;;;16.46;100.00;99130.66;4974468;28;20206;-63
2023/05/24 00:51:16;;;;;;;0.50;0.50;;;;;;;16.43;100.00;99132.56;4973727;28;20211;-63
2023/05/24 00:53:46;;;;;;;0.50;0.50;;;;;;;16.30;100.00;99114.34;4975463;28;20210;-63
2023/05/24 00:56:14;;;;;;;0.50;0.50;;;;;;;16.37;100.00;99130.34;4973624;28;20199;-63
2023/05/24 00:58:40;;;;;;;0.60;0.60;;;;;;;16.29;100.00;99128.19;4973962;28;20271;-63
2023/05/24 01:01:08;;;;;;;0.50;0.50;;;;;;;16.21;100.00;99125.22;4973111;28;20221;-64
2023/05/24 01:03:35;;;;;;;0.53;0.53;;;;;;;16.14;100.00;99123.91;4973145;28;20282;-63
2023/05/24 01:06:06;;;;;;;0.63;0.63;;;;;;;16.03;100.00;99126.25;4973842;28;20695;-63
2023/05/24 01:08:46;;;;;;;0.37;0.37;;;;;;;15.92;100.00;99118.28;4977058;28;20291;-63
2023/05/24 01:11:22;;;;;;;0.60;0.60;;;;;;;15.85;100.00;99106.63;4972889;28;20258;-63
2023/05/24 01:13:54;;;;;;;0.40;0.40;;;;;;;15.83;100.00;99118.81;4972810;28;20230;-63
2023/05/24 01:16:25;;;;;;;0.53;0.53;;;;;;;15.71;100.00;99120.31;4972763;28;20210;-63
2023/05/24 01:18:56;;;;;;;0.40;0.40;;;;;;;15.61;100.00;99109.66;4972423;28;20247;-63
2023/05/24 01:21:38;;;;;;;0.43;0.43;;;;;;;15.60;100.00;99118.34;4973060;28;20263;-63
2023/05/24 01:24:17;;;;;;;0.57;0.57;;;;;;;15.45;100.00;99102.78;4973068;28;20639;-63
2023/05/24 01:27:00;;;;;;;0.50;0.50;;;;;;;15.50;100.00;99109.44;4972391;28;21200;-63
2023/05/24 01:29:29;;;;;;;0.60;0.60;;;;;;;15.49;100.00;99109.50;4971537;28;20227;-63
2023/05/24 01:31:56;;;;;;;0.60;0.60;;;;;;;15.45;100.00;99103.63;4972700;28;20208;-64
2023/05/24 01:34:25;;;;;;;0.40;0.40;;;;;;;15.40;100.00;99107.38;4973289;28;20286;-64
2023/05/24 01:36:52;;;;;;;0.50;0.50;;;;;;;15.39;100.00;99098.81;4972612;28;20262;-64
2023/05/24 01:39:19;;;;;;;0.50;0.50;;;;;;;15.35;100.00;99107.63;4972843;28;20208;-63
2023/05/24 01:41:52;;;;;;;0.53;0.53;;;;;;;15.37;100.00;99104.97;4971059;28;20222;-64
2023/05/24 01:44:27;;;;;;;0.53;0.53;;;;;;;15.40;100.00;99105.66;4968867;28;20299;-63
2023/05/24 01:47:04;;;;;;;0.83;0.83;;;;;;;15.50;100.00;99106.84;4971791;28;20207;-63
2023/05/24 01:49:36;;;;;;;0.50;0.50;;;;;;;15.57;100.00;99097.81;4972868;28;20690;-64
2023/05/24 01:52:06;;;;;;;0.50;0.50;;;;;;;15.63;100.00;99102.66;4972766;28;20211;-63
2023/05/24 01:54:37;;;;;;;0.57;0.57;;;;;;;15.61;100.00;99096.72;4972810;28;20248;-63
2023/05/24 01:57:07;;;;;;;0.40;0.40;;;;;;;15.67;100.00;99104.13;4964391;28;20647;-63
2023/05/24 01:59:37;;;;;;;0.50;0.50;;;;;;;15.72;100.00;99111.66;4971974;28;20203;-64
2023/05/24 02:02:04;;;;;;;0.50;0.50;;;;;;;15.77;100.00;99105.31;4971671;28;20212;-64
2023/05/24 02:04:31;;;;;;;0.50;0.50;;;;;;;15.83;100.00;99105.91;4971709;28;20214;-64
2023/05/24 02:06:58;;;;;;;0.53;0.53;;;;;;;15.86;100.00;99114.31;4971730;28;20650;-63
2023/05/24 02:09:25;;;;;;;0.53;0.53;;;;;;;15.89;100.00;99108.13;4972248;28;20254;-63
2023/05/24 02:11:51;;;;;;;0.40;0.40;;;;;;;15.90;100.00;99109.78;4971718;28;20219;-63
2023/05/24 02:14:19;;;;;;;0.63;0.63;;;;;;;15.91;100.00;99107.13;4971832;28;20222;-64
2023/05/24 02:16:49;;;;;;;0.50;0.50;;;;;;;15.85;100.00;99115.22;4971772;28;20663;-63
2023/05/24 02:19:17;;;;;;;0.53;0.53;;;;;;;15.85;100.00;99122.13;4961560;28;20224;-64
2023/05/24 02:21:43;;;;;;;0.50;0.50;;;;;;;15.85;100.00;99124.72;4958730;28;20204;-63
2023/05/24 02:24:11;;;;;;;0.43;0.43;;;;;;;15.86;100.00;99135.00;4956835;28;20231;-64
2023/05/24 02:26:38;;;;;;;0.50;0.50;;;;;;;15.91;100.00;99147.63;4961184;28;20207;-63
2023/05/24 02:29:05;;;;;;;0.50;0.50;;;;;;;15.84;100.00;99151.47;4963975;28;20203;-63
2023/05/24 02:31:31;;;;;;;0.40;0.40;;;;;;;15.80;100.00;99142.25;4970326;28;20209;-63
2023/05/24 02:34:00;;;;;;;0.53;0.53;;;;;;;15.80;100.00;99150.00;4972188;28;20695;-63
2023/05/24 02:36:26;;;;;;;0.50;0.50;;;;;;;15.63;100.00;99149.19;4971111;28;20210;-63
2023/05/24 02:38:53;;;;;;;0.50;0.50;;;;;;;15.54;100.00;99147.06;4971621;28;20314;-63
2023/05/24 02:41:20;;;;;;;0.40;0.40;;;;;;;15.51;100.00;99147.25;4971139;28;20215;-63
2023/05/24 02:43:48;;;;;;;0.50;0.50;;;;;;;15.55;100.00;99147.91;4972111;28;20196;-63
2023/05/24 02:46:15;;;;;;;0.50;0.50;;;;;;;15.50;100.00;99155.94;4971650;28;20690;-63
2023/05/24 02:48:41;;;;;;;0.67;0.67;;;;;;;15.32;100.00;99164.63;4973693;28;20273;-63
2023/05/24 02:51:10;;;;;;;0.70;0.70;;;;;;;15.18;100.00;99156.78;4971323;28;20218;-63
2023/05/24 02:53:36;;;;;;;0.90;0.90;;;;;;;15.15;100.00;99156.94;4970468;28;20205;-63
2023/05/24 02:56:03;;;;;;;0.60;0.60;;;;;;;15.20;100.00;99160.09;4971741;28;20323;-63
2023/05/24 02:58:30;;;;;;;0.50;0.50;;;;;;;15.10;100.00;99164.91;4970873;28;20234;-63
2023/05/24 03:00:57;;;;;;;0.40;0.40;;;;;;;15.11;100.00;99165.75;4971747;28;20199;-64
2023/05/24 03:03:23;;;;;;;0.47;0.47;;;;;;;15.15;100.00;99162.09;4971322;28;20203;-62
2023/05/24 03:05:50;;;;;;;0.50;0.50;;;;;;;15.13;100.00;99159.59;4971651;28;20206;-63
2023/05/24 03:08:18;;;;;;;0.50;0.50;;;;;;;15.13;100.00;99158.75;4971417;28;20205;-63
2023/05/24 03:10:45;;;;;;;0.60;0.60;;;;;;;15.17;100.00;99155.09;4971410;28;20654;-63
2023/05/24 03:13:12;;;;;;;0.67;0.67;;;;;;;15.24;100.00;99161.63;4958132;28;20262;-63
2023/05/24 03:15:43;;;;;;;0.50;0.50;;;;;;;15.32;100.00;99164.63;4966645;28;20211;-63
2023/05/24 03:18:10;;;;;;;0.50;0.50;;;;;;;15.33;100.00;99165.44;4971365;28;20226;-63
2023/05/24 03:20:36;;;;;;;0.40;0.40;;;;;;;15.26;100.00;99164.94;4970635;28;20250;-64
2023/05/24 03:23:03;;;;;;;0.50;0.50;;;;;;;15.28;100.00;99162.28;4971247;28;20212;-63
2023/05/24 03:25:31;;;;;;;0.40;0.40;;;;;;;15.30;100.00;99157.88;4971137;28;20238;-63
2023/05/24 03:27:58;;;;;;;0.60;0.60;;;;;;;15.34;100.00;99165.38;4971306;28;20211;-63
2023/05/24 03:30:25;;;;;;;0.50;0.50;;;;;;;15.37;100.00;99172.13;4971206;28;20213;-63
2023/05/24 03:32:52;;;;;;;0.40;0.40;;;;;;;15.38;100.00;99172.03;4971228;28;20211;-63
2023/05/24 03:35:19;;;;;;;0.60;0.60;;;;;;;15.40;100.00;99162.47;4970897;28;20261;-63
2023/05/24 03:37:45;;;;;;;0.50;0.50;;;;;;;15.42;100.00;99159.78;4968074;28;20283;-64
2023/05/24 03:40:12;;;;;;;0.63;0.63;;;;;;;15.52;100.00;99172.16;4971189;28;20278;-63
2023/05/24 03:42:41;;;;;;;0.43;0.43;;;;;;;15.61;100.00;99171.66;4974285;28;20214;-63
2023/05/24 03:45:09;;;;;;;0.40;0.40;;;;;;;15.72;100.00;99169.34;4974750;28;20282;-63
2023/05/24 03:47:36;;;;;;;0.40;0.40;;;;;;;15.77;100.00;99165.69;4974643;28;20203;-63
2023/05/24 03:50:03;;;;;;;0.53;0.53;;;;;;;15.88;100.00;99168.50;4973281;28;20218;-63
2023/05/24 03:52:29;;;;;;;0.60;0.60;;;;;;;15.91;100.00;99163.16;4974018;28;20207;-63
2023/05/24 03:54:56;;;;;;;0.53;0.53;;;;;;;16.12;100.00;99172.31;4974609;28;20199;-63
2023/05/24 03:57:23;;;;;;;0.50;0.50;;;;;;;16.05;100.00;99140.78;4974173;28;20203;-63
2023/05/24 03:59:51;;;;;;;1.00;1.00;;;;;;;16.32;100.00;99169.41;4974129;28;20638;-64
2023/05/24 04:02:18;;;;;;;0.50;0.50;;;;;;;16.42;100.00;99175.72;4973837;28;20200;-63
2023/05/24 04:04:45;;;;;;;0.33;0.33;;;;;;;16.58;100.00;99175.69;4974927;28;20647;-63
2023/05/24 04:07:12;;;;;;;0.60;0.60;;;;;;;16.72;100.00;99188.69;4973960;28;20659;-63
2023/05/24 04:09:39;;;;;;;0.50;0.50;;;;;;;16.91;100.00;99185.84;4972945;28;20231;-63
2023/05/24 04:12:06;;;;;;;0.60;0.60;;;;;;;17.12;100.00;99182.81;4970515;28;20278;-63
2023/05/24 04:14:34;;;;;;;0.50;0.50;;;;;;;17.36;100.00;99185.66;4969951;28;20230;-64
2023/05/24 04:17:03;;;;;;;0.50;0.50;;;;;;;17.59;100.00;99186.88;4974362;28;20203;-63
2023/05/24 04:19:30;;;;;;;0.57;0.57;;;;;;;17.81;100.00;99192.38;4974886;28;20728;-64
2023/05/24 04:21:57;;;;;;;0.50;0.50;;;;;;;18.00;100.00;99192.03;4974229;28;20210;-63
2023/05/24 04:24:24;;;;;;;0.50;0.50;;;;;;;18.15;100.00;99189.31;4974422;28;20230;-64
2023/05/24 04:26:51;;;;;;;0.80;0.80;;;;;;;18.33;100.00;99189.88;4973900;28;20200;-64
2023/05/24 04:29:18;;;;;;;0.60;0.60;;;;;;;18.45;100.00;99175.28;4973266;28;20262;-64
2023/05/24 04:31:47;;;;;;;0.60;0.60;;;;;;;18.70;100.00;99190.94;4973731;28;20672;-64
2023/05/24 04:34:15;;;;;;;0.40;0.40;;;;;;;18.87;100.00;99190.63;4973634;28;20207;-64
2023/05/24 04:36:42;;;;;;;0.70;0.70;;;;;;;19.05;100.00;99188.56;4973473;28;20281;-64
2023/05/24 04:39:10;;;;;;;0.67;0.67;;;;;;;19.15;98.59;99189.59;4971801;28;20225;-64
2023/05/24 04:41:37;;;;;;;0.77;0.60;;;;;;;19.29;97.63;99186.84;4973285;28;20223;-64
2023/05/24 04:44:04;;;;;;;0.47;0.47;;;;;;;19.37;97.37;99185.41;4974010;28;20214;-63
2023/05/24 04:46:31;;;;;;;0.83;0.83;;;;;;;19.49;96.06;99185.50;4973595;28;20210;-64
2023/05/24 04:48:58;;;;;;;0.60;0.60;;;;;;;19.54;96.30;99181.69;4975788;28;20212;-64
2023/05/24 04:51:26;;;;;;;0.60;0.60;;;;;;;19.62;94.70;99187.16;4971132;28;20665;-63
2023/05/24 04:53:53;;;;;;;0.60;0.60;;;;;;;19.45;95.21;99176.28;4967787;28;20225;-63
2023/05/24 04:56:20;;;;;;;0.40;0.40;;;;;;;19.46;96.04;99173.56;4971905;28;20667;-63
2023/05/24 04:58:47;;;;;;;0.63;0.63;;;;;;;19.44;96.37;99167.66;4968886;28;20222;-62
2023/05/24 05:01:14;;;;;;;0.50;0.50;;;;;;;19.58;97.05;99177.09;4972175;28;20729;-63
2023/05/24 05:03:41;;;;;;;0.40;0.40;;;;;;;19.60;96.33;99181.25;4972766;28;20217;-63
2023/05/24 05:06:08;;;;;;;0.50;0.50;;;;;;;19.81;94.80;99189.28;4971746;28;20199;-62
2023/05/24 05:08:36;;;;;;;0.30;0.30;;;;;;;20.09;94.97;99198.56;4971958;28;20269;-63
2023/05/24 05:11:03;;;;;;;0.83;0.77;;;;;;;20.39;92.94;99201.53;4974402;28;20665;-63
2023/05/24 05:13:30;;;;;;;0.40;0.40;;;;;;;20.77;92.01;99201.31;4971034;28;20211;-62
2023/05/24 05:15:57;;;;;;;0.30;0.30;;;;;;;21.00;86.23;99207.41;4971987;28;20196;-63
2023/05/24 05:18:23;;;;;;;0.40;0.40;;;;;;;21.25;86.21;99208.06;4973360;28;20621;-64
2023/05/24 05:20:51;;;;;;;0.53;0.53;;;;;;;21.48;86.15;99208.88;4972699;28;20264;-63
2023/05/24 05:23:17;;;;;;;0.40;0.40;;;;;;;21.63;84.24;99215.50;4972098;28;20217;-63
2023/05/24 05:25:46;;;;;;;0.40;0.40;;;;;;;21.81;82.57;99214.06;4971541;28;20234;-63
2023/05/24 05:28:12;;;;;;;0.50;0.50;;;;;;;22.06;84.96;99215.59;4972820;28;20702;-63
2023/05/24 05:30:39;;;;;;;0.70;0.70;;;;;;;22.30;83.44;99207.53;4972519;28;20199;-62
2023/05/24 05:33:06;;;;;;;0.30;0.30;;;;;;;22.35;80.45;99215.84;4970612;28;20214;-63
2023/05/24 05:35:33;;;;;;;0.30;0.30;;;;;;;22.57;80.65;99215.75;4973284;28;20216;-63
2023/05/24 05:37:59;;;;;;;0.50;0.50;;;;;;;22.80;78.13;99216.50;4972826;28;20199;-63
2023/05/24 05:40:26;;;;;;;0.50;0.50;;;;;;;23.00;78.85;99215.66;4972542;28;20211;-63
2023/05/24 05:42:54;;;;;;;0.20;0.20;;;;;;;23.25;78.30;99211.78;4972678;28;20211;-63
2023/05/24 05:45:21;;;;;;;0.47;0.47;;;;;;;23.40;78.92;99215.72;4971341;28;20742;-63
2023/05/24 05:47:48;;;;;;;0.43;0.43;;;;;;;23.37;77.44;99219.41;4971903;28;20266;-63
2023/05/24 05:50:14;;;;;;;0.53;0.53;;;;;;;23.47;75.33;99209.84;4969910;28;20204;-62
2023/05/24 05:52:41;;;;;;;0.30;0.30;;;;;;;23.66;75.51;99222.16;4971993;28;20203;-62
2023/05/24 05:55:10;;;;;;;0.40;0.40;;;;;;;23.63;72.40;99222.44;4973575;28;20199;-63
2023/05/24 05:57:37;;;;;;;0.50;0.50;;;;;;;23.66;72.34;99232.63;4972020;28;20667;-62
2023/05/24 06:00:07;;;;;;;0.30;0.30;;;;;;;23.61;74.59;99234.84;4971896;28;20675;-61
2023/05/24 06:02:34;;;;;;;0.30;0.30;;;;;;;23.59;72.98;99236.75;4970836;28;20207;-64
2023/05/24 06:05:01;;;;;;;0.50;0.50;;;;;;;23.58;75.92;99236.88;4968579;28;20254;-63
2023/05/24 06:07:29;;;;;;;0.50;0.50;;;;;;;23.65;75.23;99246.69;4970289;28;20667;-63
2023/05/24 06:09:56;;;;;;;0.33;0.33;;;;;;;23.70;75.91;99244.50;4954593;28;20203;-67
2023/05/24 06:12:23;;;;;;;0.30;0.30;;;;;;;23.74;75.24;99245.91;4971596;28;20219;-64
2023/05/24 06:14:51;;;;;;;0.33;0.33;;;;;;;23.53;74.30;99238.09;4972315;28;20203;-64
2023/05/24 06:17:22;;;;;;;0.40;0.40;;;;;;;23.54;76.17;99244.19;4968923;28;20289;-64
2023/05/24 06:19:50;;;;;;;0.40;0.40;;;;;;;23.70;77.16;99239.28;4971297;28;20229;-64
2023/05/24 06:22:17;;;;;;;0.50;0.50;;;;;;;23.78;77.35;99242.03;4972019;28;20214;-64
2023/05/24 06:24:43;;;;;;;0.33;0.33;;;;;;;23.77;74.49;99242.19;4971090;28;20685;-65
2023/05/24 06:27:10;;;;;;;0.30;0.30;;;;;;;23.89;77.86;99249.81;4971651;28;20270;-64
2023/05/24 06:29:37;;;;;;;0.30;0.30;;;;;;;23.97;74.71;99251.75;4971697;28;20223;-64
2023/05/24 06:32:05;;;;;;;0.40;0.40;;;;;;;24.14;74.36;99245.03;4971908;28;20731;-64
2023/05/24 06:34:33;;;;;;;0.30;0.30;;;;;;;24.36;72.87;99242.19;4971947;28;20207;-65
2023/05/24 06:37:01;;;;;;;0.40;0.40;;;;;;;24.55;74.55;99252.69;4969097;28;20211;-66
2023/05/24 06:39:28;;;;;;;0.50;0.50;;;;;;;24.79;73.30;99239.97;4973561;28;20659;-66
2023/05/24 06:41:55;;;;;;;0.50;0.50;;;;;;;24.70;72.03;99235.56;4970471;28;20266;-64
2023/05/24 06:44:22;;;;;;;0.30;0.30;;;;;;;24.91;71.12;99259.06;4970163;28;20211;-62
2023/05/24 06:46:49;;;;;;;0.40;0.40;;;;;;;25.12;73.03;99245.75;4971297;28;20203;-63
2023/05/24 06:49:16;;;;;;;0.40;0.40;;;;;;;25.35;73.35;99252.31;4971106;28;20254;-63
2023/05/24 06:51:44;;;;;;;0.30;0.30;;;;;;;25.57;71.31;99241.47;4971581;28;20211;-63
2023/05/24 06:54:11;;;;;;;0.30;0.30;;;;;;;25.74;69.96;99243.34;4968497;28;20204;-63
2023/05/24 06:56:38;;;;;;;0.30;0.30;;;;;;;25.89;68.34;99241.88;4970771;28;20210;-62
2023/05/24 06:59:05;;;;;;;0.53;0.50;;;;;;;26.00;68.50;99241.69;4971834;28;20629;-62
2023/05/24 07:01:32;;;;;;;0.43;0.43;;;;;;;26.22;66.50;99242.25;4971525;28;20214;-62
2023/05/24 07:03:59;;;;;;;0.30;0.30;;;;;;;26.24;68.06;99241.13;4971093;28;20207;-62
2023/05/24 07:06:26;;;;;;;0.70;0.70;;;;;;;26.43;68.15;99234.91;4971355;28;20203;-62
2023/05/24 07:08:54;;;;;;;0.30;0.30;;;;;;;26.58;65.28;99238.66;4970945;28;20251;-63
2023/05/24 07:11:21;;;;;;;0.50;0.50;;;;;;;26.73;61.77;99247.66;4972834;28;20242;-63
2023/05/24 07:13:48;;;;;;;0.50;0.50;;;;;;;26.86;64.96;99236.75;4971800;28;20266;-63
2023/05/24 07:16:15;;;;;;;0.30;0.30;;;;;;;27.00;64.25;99239.66;4972897;28;20214;-63
2023/05/24 07:18:41;;;;;;;0.33;0.33;;;;;;;27.20;60.08;99234.19;4977737;28;20207;-63
2023/05/24 07:21:10;;;;;;;0.30;0.30;;;;;;;27.43;57.94;99230.88;4969513;28;20263;-62
2023/05/24 07:23:37;;;;;;;0.30;0.30;;;;;;;27.49;57.63;99225.00;4976044;28;20207;-62
2023/05/24 07:26:06;;;;;;;0.30;0.30;;;;;;;27.57;58.58;99232.94;4975772;28;20311;-62
2023/05/24 07:28:36;;;;;;;0.50;0.50;;;;;;;27.68;57.82;99228.38;4975937;28;20203;-63
2023/05/24 07:31:03;;;;;;;0.40;0.40;;;;;;;27.84;57.10;99231.91;4968954;28;20294;-62
2023/05/24 07:33:30;;;;;;;0.10;0.10;;;;;;;27.92;61.54;99231.91;4960847;28;20259;-63
2023/05/24 07:35:58;;;;;;;0.30;0.30;;;;;;;28.09;58.90;99230.19;4966330;28;20203;-62
2023/05/24 07:38:25;;;;;;;0.30;0.30;;;;;;;28.26;56.89;99228.41;4966833;28;20243;-62
2023/05/24 07:40:52;;;;;;;0.43;0.43;;;;;;;28.37;52.53;99236.00;4974224;28;20305;-62
2023/05/24 07:43:20;;;;;;;0.30;0.30;;;;;;;28.47;54.01;99221.66;4965319;28;20200;-62
2023/05/24 07:45:47;;;;;;;0.20;0.20;;;;;;;28.48;55.98;99233.88;4973178;28;20211;-63
2023/05/24 07:48:15;;;;;;;0.40;0.40;;;;;;;28.53;57.70;99228.09;4974667;28;20207;-63
2023/05/24 07:50:41;;;;;;;0.20;0.20;;;;;;;28.67;54.64;99230.09;4974978;28;20207;-63
2023/05/24 07:53:08;;;;;;;0.40;0.40;;;;;;;28.49;55.76;99232.88;4975241;28;20199;-62
2023/05/24 07:55:35;;;;;;;0.63;0.63;;;;;;;28.36;56.39;99229.06;4974641;28;20208;-62
2023/05/24 07:58:02;;;;;;;0.25;0.25;;;;;;;28.47;54.46;99232.19;4975408;28;20203;-61
2023/05/24 08:00:32;;;;;;;0.30;0.30;;;;;;;28.56;53.61;99231.22;4970916;28;20721;-62
2023/05/24 08:02:59;;;;;;;0.30;0.30;;;;;;;28.63;55.16;99231.38;4974742;28;20203;-63
2023/05/24 08:05:26;;;;;;;0.57;0.57;;;;;;;28.77;55.21;99222.84;4974539;28;20262;-63
2023/05/24 08:07:53;;;;;;;0.30;0.30;;;;;;;28.83;53.86;99232.72;4974221;28;20199;-62
2023/05/24 08:10:20;;;;;;;0.90;0.40;;;;;;;28.98;51.44;99235.53;4974511;28;20234;-62
2023/05/24 08:12:49;;;;;;;0.40;0.40;;;;;;;28.94;50.06;99223.66;4974817;28;20200;-63
2023/05/24 08:15:16;;;;;;;0.30;0.30;;;;;;;28.84;47.81;99229.13;4974184;28;20207;-63
2023/05/24 08:17:44;;;;;;;0.40;0.40;;;;;;;29.00;51.38;99223.81;4974352;28;20246;-63
2023/05/24 08:20:13;;;;;;;0.25;0.25;;;;;;;28.91;54.20;99224.81;4974869;28;20223;-63
2023/05/24 08:22:40;;;;;;;0.38;0.38;;;;;;;29.11;51.04;99225.28;4974659;28;20203;-63
2023/05/24 08:25:07;;;;;;;0.40;0.40;;;;;;;29.15;49.55;99231.84;4973723;28;20239;-63
2023/05/24 08:27:34;;;;;;;0.50;0.50;;;;;;;29.33;48.61;99223.75;4973150;28;20203;-63
2023/05/24 08:30:03;;;;;;;0.20;0.20;;;;;;;29.19;47.52;99215.53;4974228;28;20196;-64
2023/05/24 08:32:30;;;;;;;0.40;0.40;;;;;;;29.47;51.48;99225.69;4973582;28;20210;-62
2023/05/24 08:34:59;;;;;;;0.30;0.30;;;;;;;29.50;48.09;99199.75;4972806;28;20214;-63
2023/05/24 08:37:26;;;;;;;0.30;0.30;;;;;;;29.72;46.76;99226.44;4972449;28;20215;-63
2023/05/24 08:39:52;;;;;;;0.30;0.30;;;;;;;29.73;48.72;99225.44;4974200;28;20314;-63
2023/05/24 08:42:21;;;;;;;0.45;0.45;;;;;;;29.41;48.46;99232.47;4974288;28;20207;-63
2023/05/24 08:44:52;;;;;;;0.40;0.40;;;;;;;29.27;49.63;99232.38;4973977;28;20586;-63
2023/05/24 08:47:20;;;;;;;0.20;0.20;;;;;;;29.32;49.12;99238.78;4971271;28;20247;-63
2023/05/24 08:49:48;;;;;;;0.30;0.30;;;;;;;29.34;49.82;99239.44;4972630;28;20250;-63
2023/05/24 08:52:16;;;;;;;0.35;0.35;;;;;;;28.97;50.32;99213.59;4974494;28;20214;-63
2023/05/24 08:54:43;;;;;;;0.40;0.40;;;;;;;29.23;51.17;99234.50;4974391;28;20564;-64
2023/05/24 08:57:11;;;;;;;0.30;0.30;;;;;;;29.35;49.73;99232.34;4973361;28;20659;-63
2023/05/24 08:59:39;;;;;;;0.50;0.50;;;;;;;29.40;49.34;99232.66;4972167;28;20313;-63
2023/05/24 09:02:09;;;;;;;0.30;0.30;;;;;;;29.47;47.91;99237.06;4973647;28;20262;-64
2023/05/24 09:04:37;;;;;;;0.30;0.30;;;;;;;29.61;46.94;99231.09;4976724;28;20803;-63
2023/05/24 09:07:04;;;;;;;0.28;0.28;;;;;;;29.31;47.46;99225.72;4973302;28;20212;-63
2023/05/24 09:09:35;;;;;;;0.25;0.25;;;;;;;29.26;50.71;99228.06;4973164;28;20199;-64
2023/05/24 09:12:07;;;;;;;0.55;0.55;;;;;;;29.30;50.34;99230.22;4972027;28;20206;-63
2023/05/24 09:14:34;;;;;;;0.30;0.30;;;;;;;29.59;47.31;99224.34;4972573;28;20290;-63
2023/05/24 09:17:02;;;;;;;0.28;0.28;;;;;;;29.69;46.05;99219.69;4972600;28;20203;-64
2023/05/24 09:19:30;;;;;;;0.30;0.30;;;;;;;29.91;49.48;99226.84;4960015;28;20219;-63
2023/05/24 09:21:58;;;;;;;0.25;0.25;;;;;;;30.00;46.97;99228.47;4962312;28;20200;-63
2023/05/24 09:24:25;;;;;;;0.30;0.30;;;;;;;29.98;46.31;99229.63;4969734;28;20234;-64
2023/05/24 09:26:53;;;;;;;0.20;0.20;;;;;;;29.54;47.14;99200.22;4972633;28;20210;-64
2023/05/24 09:29:23;;;;;;;0.30;0.30;;;;;;;29.75;45.24;99223.44;4961480;28;20640;-63
2023/05/24 09:31:50;;;;;;;0.20;0.20;;;;;;;29.93;45.14;99221.38;4961409;28;20663;-63
2023/05/24 09:34:20;;;;;;;0.40;0.40;;;;;;;30.18;43.16;99229.00;4963606;28;20844;-64
2023/05/24 09:36:48;;;;;;;0.30;0.30;;;;;;;30.41;45.51;99225.56;4971475;28;20270;-63
2023/05/24 09:39:15;;;;;;;0.20;0.20;;;;;;;30.35;45.36;99218.31;4968974;28;20744;-64
2023/05/24 09:41:43;;;;;;;0.30;0.30;;;;;;;30.34;43.96;99224.63;4971754;28;20293;-64
2023/05/24 09:44:14;;;;;;;0.25;0.25;;;;;;;30.48;44.49;99221.22;4970795;28;20206;-64
2023/05/24 09:46:40;;;;;;;0.55;0.55;;;;;;;30.55;42.36;99227.44;4968214;28;20662;-63
2023/05/24 09:49:08;;;;;;;0.32;0.32;;;;;;;30.62;43.61;99223.09;4971365;28;20207;-63
2023/05/24 09:51:38;;;;;;;0.20;0.20;;;;;;;30.67;41.21;99226.00;4972222;28;20227;-63
2023/05/24 09:54:06;;;;;;;0.30;0.30;;;;;;;30.73;40.70;99231.41;4973290;28;20324;-63
2023/05/24 09:56:34;;;;;;;0.40;0.40;;;;;;;30.79;42.85;99224.59;4971681;28;20203;-64
2023/05/24 09:59:07;;;;;;;0.40;0.40;;;;;;;30.65;41.37;99218.28;4972974;28;20215;-63
2023/05/24 10:01:35;;;;;;;0.40;0.40;;;;;;;30.42;41.30;99206.88;4972458;28;20254;-63
2023/05/24 10:04:05;;;;;;;0.28;0.28;;;;;;;30.66;40.70;99219.91;4975666;28;20239;-64
2023/05/24 10:06:36;;;;;;;0.30;0.30;;;;;;;30.75;40.84;99212.72;4973060;28;20695;-64
2023/05/24 10:09:05;;;;;;;0.30;0.30;;;;;;;30.74;42.53;99216.38;4969713;28;20759;-64
2023/05/24 10:11:32;;;;;;;0.38;0.38;;;;;;;30.79;41.69;99213.19;4971810;28;20655;-63
2023/05/24 10:13:59;;;;;;;0.43;0.43;;;;;;;30.65;39.11;99210.34;4970205;28;20215;-63
2023/05/24 10:16:26;;;;;;;0.30;0.30;;;;;;;30.63;38.84;99216.81;4971896;28;20395;-63
2023/05/24 10:18:55;;;;;;;0.30;0.30;;;;;;;30.80;39.59;99210.34;4970407;28;20290;-64
2023/05/24 10:21:24;;;;;;;0.20;0.20;;;;;;;30.64;40.88;99190.16;4972194;28;20227;-63
2023/05/24 10:23:57;;;;;;;0.32;0.32;;;;;;;30.75;42.19;99201.31;4967642;28;20254;-64
2023/05/24 10:26:25;;;;;;;0.40;0.40;;;;;;;30.73;42.94;99204.94;4969114;28;20212;-64
2023/05/24 10:28:59;;;;;;;0.65;0.65;;;;;;;30.93;41.53;99202.63;4969247;28;20740;-65
2023/05/24 10:31:31;;;;;;;0.43;0.43;;;;;;;31.06;41.39;99197.56;4971932;28;20266;-64
2023/05/24 10:34:03;;;;;;;0.20;0.20;;;;;;;30.67;40.96;99199.56;4970829;28;20246;-64
2023/05/24 10:36:31;;;;;;;0.50;0.50;;;;;;;30.44;39.42;99193.47;4970753;28;20203;-64
2023/05/24 10:38:58;;;;;;;0.40;0.40;;;;;;;30.25;39.04;99199.19;4970604;28;20211;-65
2023/05/24 10:41:26;;;;;;;0.47;0.47;;;;;;;29.96;38.48;99198.06;4969421;28;20223;-64
2023/05/24 10:43:53;;;;;;;0.30;0.30;;;;;;;30.25;39.94;99194.72;4969710;28;20294;-65
2023/05/24 10:46:21;;;;;;;0.52;0.52;;;;;;;30.07;40.60;99186.28;4971806;28;20208;-65
2023/05/24 10:49:01;;;;;;;0.40;0.40;;;;;;;30.32;39.05;99186.91;4972071;28;20199;-65
2023/05/24 10:51:37;;;;;;;0.80;0.30;;;;;;;30.47;40.38;99178.06;4972052;28;20671;-64
2023/05/24 10:54:17;;;;;;;0.30;0.30;;;;;;;30.64;41.79;99173.44;4972269;28;20203;-65
2023/05/24 10:56:46;;;;;;;0.30;0.30;;;;;;;30.75;39.05;99173.03;4972515;28;20199;-65
2023/05/24 10:59:24;;;;;;;0.20;0.20;;;;;;;30.92;40.19;99171.84;4971361;28;20624;-65
2023/05/24 11:01:57;;;;;;;0.40;0.40;;;;;;;30.90;39.22;99165.91;4970600;28;20688;-65
2023/05/24 11:04:28;;;;;;;0.20;0.20;;;;;;;30.60;36.92;99166.88;4972024;28;20207;-64
2023/05/24 11:06:56;;;;;;;0.52;0.52;;;;;;;30.40;38.26;99165.75;4972300;28;20199;-63
2023/05/24 11:09:25;;;;;;;0.20;0.20;;;;;;;30.51;38.51;99162.66;4970944;28;20196;-64
2023/05/24 11:11:56;;;;;;;0.52;0.52;;;;;;;30.53;37.59;99158.03;4966385;28;20195;-63
2023/05/24 11:14:25;;;;;;;0.30;0.30;;;;;;;30.32;39.19;99152.53;4972776;28;20294;-63
2023/05/24 11:16:51;;;;;;;0.55;0.55;;;;;;;30.11;37.48;99161.94;4968777;28;20708;-64
2023/05/24 11:19:20;;;;;;;0.30;0.30;;;;;;;30.37;37.54;99171.34;4972064;28;20199;-63
2023/05/24 11:21:50;;;;;;;0.40;0.40;;;;;;;30.41;38.44;99167.38;4971921;28;20219;-63
2023/05/24 11:24:17;;;;;;;0.20;0.20;;;;;;;30.20;37.04;99162.72;4967278;28;20638;-64
2023/05/24 11:26:44;;;;;;;0.30;0.30;;;;;;;30.35;38.15;99153.00;4961184;28;20290;-62
2023/05/24 11:29:16;;;;;;;0.40;0.40;;;;;;;30.50;41.00;99158.38;4961457;28;20267;-63
2023/05/24 11:31:48;;;;;;;0.25;0.25;;;;;;;30.36;37.00;99169.69;4965817;28;20217;-63
2023/05/24 11:34:14;;;;;;;0.20;0.20;;;;;;;30.17;37.32;99158.63;4958619;28;20203;-63